createdAt,value
2023-03-15T00:02:04.213Z,11.90
2023-03-15T00:04:30.858Z,11.90
2023-03-15T00:06:57.485Z,11.90
2023-03-15T00:09:24.118Z,11.90
2023-03-15T00:11:50.737Z,11.90
2023-03-15T00:14:17.361Z,11.90
2023-03-15T00:16:44.188Z,12.00
2023-03-15T00:19:10.801Z,11.90
2023-03-15T00:21:37.416Z,12.00
2023-03-15T00:24:04.028Z,11.90
2023-03-15T00:26:30.848Z,11.90
2023-03-15T00:28:57.478Z,11.90
2023-03-15T00:31:24.127Z,11.90
2023-03-15T00:33:51.000Z,11.90
2023-03-15T00:36:17.613Z,11.90
2023-03-15T00:38:44.258Z,11.90
2023-03-15T00:41:10.906Z,11.90
2023-03-15T00:43:37.535Z,11.90
2023-03-15T00:46:04.284Z,11.90
2023-03-15T00:48:30.924Z,11.90
2023-03-15T00:50:57.536Z,11.90
2023-03-15T00:53:24.141Z,11.90
2023-03-15T00:55:50.766Z,11.80
2023-03-15T00:58:17.399Z,11.90
2023-03-15T01:00:44.255Z,11.80
2023-03-15T01:03:10.918Z,11.90
2023-03-15T01:05:37.588Z,11.80
2023-03-15T01:08:04.210Z,11.80
2023-03-15T01:10:30.839Z,11.80
2023-03-15T01:12:57.469Z,11.80
2023-03-15T01:15:24.139Z,11.80
2023-03-15T01:17:50.766Z,11.80
2023-03-15T01:20:17.418Z,11.80
2023-03-15T01:22:44.073Z,11.80
2023-03-15T01:25:11.006Z,11.80
2023-03-15T01:27:37.636Z,11.80
2023-03-15T01:30:04.264Z,11.80
2023-03-15T01:32:30.931Z,11.80
2023-03-15T01:34:57.574Z,11.80
2023-03-15T01:37:24.415Z,11.80
2023-03-15T01:39:51.052Z,11.80
2023-03-15T01:42:17.893Z,11.80
2023-03-15T01:44:44.553Z,11.80
2023-03-15T01:47:11.289Z,11.80
2023-03-15T01:49:37.986Z,11.80
2023-03-15T01:52:04.608Z,11.70
2023-03-15T01:54:31.223Z,11.80
2023-03-15T01:56:57.838Z,11.80
2023-03-15T01:59:24.480Z,11.80
2023-03-15T02:01:51.482Z,11.80
2023-03-15T02:04:18.151Z,11.80
2023-03-15T02:06:44.780Z,11.70
2023-03-15T02:09:11.409Z,11.70
2023-03-15T02:11:38.050Z,11.70
2023-03-15T02:14:04.676Z,11.70
2023-03-15T02:16:31.326Z,11.70
2023-03-15T02:18:58.165Z,11.70
2023-03-15T02:21:24.776Z,11.70
2023-03-15T02:23:51.614Z,11.70
2023-03-15T02:26:18.228Z,11.70
2023-03-15T02:28:44.852Z,11.70
2023-03-15T02:31:11.684Z,11.70
2023-03-15T02:33:57.233Z,11.70
2023-03-15T02:36:24.068Z,11.70
2023-03-15T02:38:50.692Z,11.70
2023-03-15T02:41:17.545Z,11.70
2023-03-15T02:43:44.151Z,11.70
2023-03-15T02:46:10.862Z,11.70
2023-03-15T02:48:37.554Z,11.70
2023-03-15T02:51:04.174Z,11.60
2023-03-15T02:53:30.788Z,11.70
2023-03-15T02:55:57.411Z,11.70
2023-03-15T02:58:24.249Z,11.70
2023-03-15T03:00:50.900Z,11.60
2023-03-15T03:03:17.519Z,11.70
2023-03-15T03:05:44.132Z,11.60
2023-03-15T03:08:10.767Z,11.60
2023-03-15T03:10:37.390Z,11.60
2023-03-15T03:13:04.667Z,11.60
2023-03-15T03:15:31.284Z,11.60
2023-03-15T03:17:57.901Z,11.60
2023-03-15T03:20:24.512Z,11.60
2023-03-15T03:22:51.142Z,11.60
2023-03-15T03:25:17.759Z,11.60
2023-03-15T03:27:44.595Z,11.60
2023-03-15T03:30:11.217Z,11.60
2023-03-15T03:32:37.858Z,11.60
2023-03-15T03:35:04.584Z,11.60
2023-03-15T03:37:31.206Z,11.60
2023-03-15T03:39:58.039Z,11.60
2023-03-15T03:42:24.654Z,11.60
2023-03-15T03:44:51.277Z,11.60
2023-03-15T03:47:17.900Z,11.60
2023-03-15T03:49:44.524Z,11.60
2023-03-15T03:52:11.136Z,11.60
2023-03-15T03:54:37.774Z,11.60
2023-03-15T03:57:04.406Z,11.60
2023-03-15T03:59:31.249Z,11.50
2023-03-15T04:01:57.877Z,11.50
2023-03-15T04:04:24.532Z,11.60
2023-03-15T04:06:51.180Z,11.50
2023-03-15T04:09:17.819Z,11.50
2023-03-15T04:11:44.658Z,11.50
2023-03-15T04:14:11.540Z,11.50
2023-03-15T04:16:38.175Z,11.50
2023-03-15T04:19:04.796Z,11.50
2023-03-15T04:21:31.640Z,11.50
2023-03-15T04:23:58.470Z,11.50
2023-03-15T04:26:25.297Z,11.50
2023-03-15T04:28:51.924Z,11.50
2023-03-15T04:31:18.819Z,11.50
2023-03-15T04:33:45.458Z,11.50
2023-03-15T04:36:12.317Z,11.50
2023-03-15T04:38:38.971Z,11.50
2023-03-15T04:41:05.802Z,11.50
2023-03-15T04:43:32.434Z,11.50
2023-03-15T04:45:59.261Z,11.50
2023-03-15T04:48:25.882Z,11.50
2023-03-15T04:50:52.492Z,11.50
2023-03-15T04:53:19.108Z,11.40
2023-03-15T04:55:45.952Z,11.50
2023-03-15T04:58:12.561Z,11.40
2023-03-15T05:00:39.430Z,11.40
2023-03-15T05:03:06.333Z,11.40
2023-03-15T05:05:33.171Z,11.40
2023-03-15T05:07:59.785Z,11.40
2023-03-15T05:10:26.402Z,11.40
2023-03-15T05:12:53.038Z,11.40
2023-03-15T05:15:19.926Z,11.40
2023-03-15T05:17:46.648Z,11.40
2023-03-15T05:20:13.367Z,11.40
2023-03-15T05:22:39.990Z,11.40
2023-03-15T05:25:06.606Z,11.40
2023-03-15T05:27:33.238Z,11.40
2023-03-15T05:29:59.864Z,11.40
2023-03-15T05:32:26.546Z,11.40
2023-03-15T05:34:53.192Z,11.40
2023-03-15T05:37:19.819Z,11.30
2023-03-15T05:39:46.447Z,11.40
2023-03-15T05:42:13.082Z,11.40
2023-03-15T05:44:39.956Z,11.30
2023-03-15T05:47:06.594Z,11.40
2023-03-15T05:49:33.442Z,11.30
2023-03-15T05:52:00.060Z,11.30
2023-03-15T05:54:26.707Z,11.30
2023-03-15T05:56:53.340Z,11.30
2023-03-15T05:59:19.973Z,11.30
2023-03-15T06:01:46.597Z,11.30
2023-03-15T06:04:13.253Z,11.30
2023-03-15T06:06:39.981Z,11.30
2023-03-15T06:09:06.635Z,11.30
2023-03-15T06:11:33.259Z,11.30
2023-03-15T06:13:59.878Z,11.30
2023-03-15T06:16:26.572Z,11.30
2023-03-15T06:18:53.213Z,11.30
2023-03-15T06:21:19.851Z,11.30
2023-03-15T06:23:46.476Z,11.30
2023-03-15T06:26:13.110Z,11.30
2023-03-15T06:28:39.719Z,11.30
2023-03-15T06:31:06.349Z,11.30
2023-03-15T06:33:33.626Z,11.30
2023-03-15T06:36:00.273Z,11.20
2023-03-15T06:38:26.921Z,11.30
2023-03-15T06:40:54.256Z,11.30
2023-03-15T06:43:20.874Z,11.30
2023-03-15T06:45:47.547Z,11.30
2023-03-15T06:48:14.188Z,11.30
2023-03-15T06:50:47.457Z,11.30
2023-03-15T06:53:14.469Z,11.30
2023-03-15T06:55:41.082Z,11.20
2023-03-15T06:58:07.710Z,11.30
2023-03-15T07:00:34.324Z,11.20
2023-03-15T07:03:01.014Z,11.30
2023-03-15T07:05:28.856Z,11.20
2023-03-15T07:07:56.457Z,11.20
2023-03-15T07:10:23.311Z,11.20
2023-03-15T07:12:49.933Z,11.20
2023-03-15T07:15:17.817Z,11.20
2023-03-15T07:17:44.460Z,11.20
2023-03-15T07:20:11.100Z,11.20
2023-03-15T07:22:37.720Z,11.20
2023-03-15T07:25:04.336Z,11.20
2023-03-15T07:27:30.965Z,11.20
2023-03-15T07:29:57.612Z,11.20
2023-03-15T07:32:24.335Z,11.20
2023-03-15T07:34:51.014Z,11.20
2023-03-15T07:37:17.650Z,11.20
2023-03-15T07:39:44.262Z,11.20
2023-03-15T07:42:10.894Z,11.20
2023-03-15T07:44:37.511Z,11.20
2023-03-15T07:47:04.163Z,11.20
2023-03-15T07:49:30.774Z,11.20
2023-03-15T07:51:57.395Z,11.20
2023-03-15T07:54:24.026Z,11.20
2023-03-15T07:56:50.654Z,11.20
2023-03-15T07:59:17.276Z,11.20
2023-03-15T08:01:43.897Z,11.20
2023-03-15T08:04:10.538Z,11.20
2023-03-15T08:06:37.163Z,11.20
2023-03-15T08:09:03.824Z,11.20
2023-03-15T08:11:30.455Z,11.20
2023-03-15T08:13:57.093Z,11.20
2023-03-15T08:16:23.752Z,11.20
2023-03-15T08:18:50.380Z,11.20
2023-03-15T08:21:17.002Z,11.20
2023-03-15T08:23:43.640Z,11.20
2023-03-15T08:26:10.266Z,11.20
2023-03-15T08:28:36.922Z,11.20
2023-03-15T08:31:03.546Z,11.20
2023-03-15T08:33:30.175Z,11.20
2023-03-15T08:35:56.850Z,11.20
2023-03-15T08:38:23.508Z,11.20
2023-03-15T08:40:50.133Z,11.20
2023-03-15T08:43:16.750Z,11.30
2023-03-15T08:45:59.577Z,11.30
2023-03-15T08:48:27.522Z,11.30
2023-03-15T08:50:54.141Z,11.30
2023-03-15T08:53:20.758Z,11.40
2023-03-15T08:55:47.388Z,11.40
2023-03-15T08:58:14.038Z,11.50
2023-03-15T09:00:40.697Z,11.50
2023-03-15T09:03:07.378Z,11.50
2023-03-15T09:05:34.005Z,11.50
2023-03-15T09:08:00.675Z,11.50
2023-03-15T09:10:27.303Z,11.50
2023-03-15T09:12:54.148Z,11.50
2023-03-15T09:15:20.800Z,11.60
2023-03-15T09:17:48.445Z,11.60
2023-03-15T09:20:15.105Z,11.60
2023-03-15T09:22:41.758Z,11.70
2023-03-15T09:25:08.430Z,11.60
2023-03-15T09:27:35.121Z,11.70
2023-03-15T09:30:01.769Z,11.70
2023-03-15T09:32:28.435Z,11.70
2023-03-15T09:34:55.085Z,11.70
2023-03-15T09:37:21.726Z,11.70
2023-03-15T09:39:48.385Z,11.70
2023-03-15T09:42:15.020Z,11.80
2023-03-15T09:44:41.632Z,11.70
2023-03-15T09:47:08.267Z,11.70
2023-03-15T09:49:34.893Z,11.80
2023-03-15T09:52:01.512Z,11.80
2023-03-15T09:54:28.126Z,11.80
2023-03-15T09:56:54.764Z,11.90
2023-03-15T09:59:21.389Z,11.90
2023-03-15T10:01:48.071Z,11.90
2023-03-15T10:04:14.727Z,11.90
2023-03-15T10:06:41.363Z,11.90
2023-03-15T10:09:08.000Z,11.90
2023-03-15T10:11:34.636Z,11.90
2023-03-15T10:14:01.985Z,11.90
2023-03-15T10:16:28.625Z,11.90
2023-03-15T10:18:55.319Z,11.90
2023-03-15T10:21:21.940Z,11.90
2023-03-15T10:23:48.574Z,11.90
2023-03-15T10:26:15.197Z,11.90
2023-03-15T10:28:41.824Z,11.90
2023-03-15T10:31:08.477Z,12.00
2023-03-15T10:33:35.114Z,12.00
2023-03-15T10:36:11.105Z,11.90
2023-03-15T10:38:38.275Z,12.00
2023-03-15T10:41:04.899Z,12.00
2023-03-15T10:43:31.538Z,12.00
2023-03-15T10:46:00.511Z,12.00
2023-03-15T10:48:27.150Z,12.00
2023-03-15T10:50:53.791Z,12.00
2023-03-15T10:53:20.425Z,12.00
2023-03-15T10:55:47.045Z,12.00
2023-03-15T10:58:13.678Z,12.00
2023-03-15T11:00:40.293Z,12.10
2023-03-15T11:03:06.968Z,12.10
2023-03-15T11:05:33.663Z,12.10
2023-03-15T11:08:00.304Z,12.10
2023-03-15T11:10:26.935Z,12.00
2023-03-15T11:12:53.574Z,12.10
2023-03-15T11:15:20.201Z,12.10
2023-03-15T11:17:46.846Z,12.10
2023-03-15T11:20:13.467Z,12.10
2023-03-15T11:22:40.091Z,12.10
2023-03-15T11:25:06.718Z,12.10
2023-03-15T11:27:33.336Z,12.10
2023-03-15T11:29:59.965Z,12.10
2023-03-15T11:32:26.612Z,12.10
2023-03-15T11:34:53.274Z,12.20
2023-03-15T11:37:19.899Z,12.10
2023-03-15T11:39:46.738Z,12.20
2023-03-15T11:42:13.376Z,12.20
2023-03-15T11:44:39.982Z,12.20
2023-03-15T11:47:06.628Z,12.10
2023-03-15T11:49:33.262Z,12.20
2023-03-15T11:51:59.882Z,12.10
2023-03-15T11:54:26.500Z,12.20
2023-03-15T11:56:53.132Z,12.20
2023-03-15T11:59:19.981Z,12.20
2023-03-15T12:01:46.633Z,12.20
2023-03-15T12:04:15.546Z,12.20
2023-03-15T12:06:42.426Z,12.20
2023-03-15T12:09:09.065Z,12.20
2023-03-15T12:11:35.709Z,12.20
2023-03-15T12:14:02.343Z,12.10
2023-03-15T12:16:29.205Z,12.20
2023-03-15T12:18:55.855Z,12.10
2023-03-15T12:21:22.492Z,12.20
2023-03-15T12:23:49.122Z,12.20
2023-03-15T12:26:15.764Z,12.20
2023-03-15T12:28:42.388Z,12.20
2023-03-15T12:31:09.029Z,12.20
2023-03-15T12:33:35.664Z,12.20
2023-03-15T12:36:02.323Z,12.20
2023-03-15T12:38:28.995Z,12.20
2023-03-15T12:40:55.637Z,12.20
2023-03-15T12:43:22.270Z,12.20
2023-03-15T12:45:48.938Z,12.20
2023-03-15T12:48:15.584Z,12.30
2023-03-15T12:50:42.213Z,12.30
2023-03-15T12:53:08.832Z,12.20
2023-03-15T12:55:35.475Z,12.30
2023-03-15T12:58:02.106Z,12.20
2023-03-15T13:00:28.744Z,12.30
2023-03-15T13:02:55.411Z,12.30
2023-03-15T13:05:22.038Z,12.20
2023-03-15T13:07:51.246Z,12.30
2023-03-15T13:10:18.842Z,12.20
2023-03-15T13:12:45.484Z,12.30
2023-03-15T13:15:12.120Z,12.30
2023-03-15T13:17:38.746Z,12.20
2023-03-15T13:20:05.366Z,12.40
2023-03-15T13:22:31.987Z,12.30
2023-03-15T13:24:58.603Z,12.40
2023-03-15T13:27:25.221Z,12.40
2023-03-15T13:29:51.839Z,12.40
2023-03-15T13:32:18.472Z,12.40
2023-03-15T13:34:45.101Z,12.50
2023-03-15T13:37:11.729Z,12.40
2023-03-15T13:39:38.369Z,12.40
2023-03-15T13:42:05.000Z,12.40
2023-03-15T13:44:31.646Z,12.40
2023-03-15T13:46:58.329Z,12.40
2023-03-15T13:49:24.973Z,12.30
2023-03-15T13:51:51.598Z,12.40
2023-03-15T13:54:18.218Z,12.50
2023-03-15T13:56:49.707Z,12.60
2023-03-15T13:59:16.534Z,13.00
2023-03-15T14:01:43.225Z,13.20
2023-03-15T14:04:09.897Z,13.30
2023-03-15T14:06:36.514Z,13.50
2023-03-15T14:09:03.140Z,13.60
2023-03-15T14:11:29.747Z,13.70
2023-03-15T14:13:56.374Z,13.80
2023-03-15T14:16:23.052Z,13.80
2023-03-15T14:18:49.756Z,13.70
2023-03-15T14:21:16.380Z,13.70
2023-03-15T14:23:43.170Z,13.40
2023-03-15T14:26:09.780Z,13.10
2023-03-15T14:28:36.586Z,13.00
2023-03-15T14:31:03.281Z,13.00
2023-03-15T14:33:29.930Z,12.90
2023-03-15T14:35:56.598Z,13.00
2023-03-15T14:38:23.258Z,13.10
2023-03-15T14:40:49.891Z,12.90
2023-03-15T14:43:16.522Z,12.80
2023-03-15T14:45:43.179Z,12.70
2023-03-15T14:48:09.807Z,12.70
2023-03-15T14:50:36.484Z,12.70
2023-03-15T14:53:03.151Z,12.60
2023-03-15T14:55:29.802Z,12.60
2023-03-15T14:57:56.421Z,12.50
2023-03-15T15:00:23.058Z,12.50
2023-03-15T15:02:49.901Z,12.50
2023-03-15T15:05:16.535Z,12.40
2023-03-15T15:07:43.158Z,12.40
2023-03-15T15:10:09.789Z,12.40
2023-03-15T15:12:36.418Z,12.40
2023-03-15T15:15:03.046Z,12.40
2023-03-15T15:17:29.691Z,12.30
2023-03-15T15:19:56.560Z,12.30
2023-03-15T15:22:23.185Z,12.30
2023-03-15T15:24:51.364Z,12.30
2023-03-15T15:27:18.096Z,12.20
2023-03-15T15:29:44.729Z,12.20
2023-03-15T15:32:11.362Z,12.20
2023-03-15T15:34:37.981Z,12.20
2023-03-15T15:37:04.615Z,12.20
2023-03-15T15:39:31.242Z,12.20
2023-03-15T15:41:57.859Z,12.20
2023-03-15T15:44:24.469Z,12.10
2023-03-15T15:46:51.084Z,12.20
2023-03-15T15:49:17.697Z,12.20
2023-03-15T15:51:44.306Z,12.10
2023-03-15T15:54:10.924Z,12.10
2023-03-15T15:56:37.534Z,12.00
2023-03-15T15:59:04.183Z,12.00
2023-03-15T16:01:30.823Z,12.10
2023-03-15T16:03:57.458Z,12.10
2023-03-15T16:06:24.072Z,12.00
2023-03-15T16:08:50.914Z,12.00
2023-03-15T16:11:17.568Z,12.10
2023-03-15T16:13:44.208Z,12.10
2023-03-15T16:16:10.850Z,12.10
2023-03-15T16:18:37.554Z,12.00
2023-03-15T16:21:04.178Z,12.10
2023-03-15T16:23:30.799Z,12.00
2023-03-15T16:25:57.411Z,12.00
2023-03-15T16:28:24.038Z,12.00
2023-03-15T16:30:50.688Z,12.00
2023-03-15T16:33:17.377Z,12.00
2023-03-15T16:35:44.168Z,12.00
2023-03-15T16:38:10.841Z,12.00
2023-03-15T16:40:37.478Z,11.90
2023-03-15T16:43:04.093Z,11.90
2023-03-15T16:45:30.714Z,11.90
2023-03-15T16:47:57.344Z,11.90
2023-03-15T16:50:24.241Z,11.90
2023-03-15T16:52:50.879Z,11.90
2023-03-15T16:55:17.807Z,11.90
2023-03-15T16:57:44.456Z,11.90
2023-03-15T17:00:11.129Z,11.90
2023-03-15T17:02:37.996Z,11.90
2023-03-15T17:05:04.627Z,11.90
2023-03-15T17:07:31.421Z,11.90
2023-03-15T17:09:58.114Z,11.90
2023-03-15T17:12:24.758Z,11.80
2023-03-15T17:14:51.398Z,11.80
2023-03-15T17:17:17.975Z,11.80
2023-03-15T17:19:44.603Z,11.80
2023-03-15T17:22:11.224Z,11.80
2023-03-15T17:24:37.841Z,11.80
2023-03-15T17:27:04.461Z,11.80
2023-03-15T17:29:31.086Z,11.80
2023-03-15T17:31:57.719Z,11.80
2023-03-15T17:34:24.356Z,11.80
2023-03-15T17:36:50.981Z,11.80
2023-03-15T17:39:17.615Z,11.70
2023-03-15T17:41:44.249Z,11.70
2023-03-15T17:44:10.908Z,11.70
2023-03-15T17:46:37.571Z,11.70
2023-03-15T17:49:04.228Z,11.70
2023-03-15T17:51:30.848Z,11.70
2023-03-15T17:53:57.699Z,11.70
2023-03-15T17:56:24.344Z,11.70
2023-03-15T17:58:50.987Z,11.70
2023-03-15T18:01:17.672Z,11.70
2023-03-15T18:03:44.330Z,11.70
2023-03-15T18:06:10.959Z,11.70
2023-03-15T18:08:37.574Z,11.70
2023-03-15T18:11:04.199Z,11.60
2023-03-15T18:13:30.818Z,11.60
2023-03-15T18:15:57.433Z,11.70
2023-03-15T18:18:24.070Z,11.60
2023-03-15T18:20:50.718Z,11.60
2023-03-15T18:23:17.355Z,11.60
2023-03-15T18:25:43.980Z,11.60
2023-03-15T18:28:10.835Z,11.70
2023-03-15T18:30:37.446Z,11.60
2023-03-15T18:33:04.296Z,11.60
2023-03-15T18:35:30.977Z,11.60
2023-03-15T18:37:57.611Z,11.60
2023-03-15T18:40:24.226Z,11.60
2023-03-15T18:42:50.882Z,11.60
2023-03-15T18:45:17.701Z,11.60
2023-03-15T18:47:44.330Z,11.60
2023-03-15T18:50:11.661Z,11.60
2023-03-15T18:52:38.333Z,11.60
2023-03-15T18:55:04.951Z,11.60
2023-03-15T18:57:31.578Z,11.60
2023-03-15T18:59:58.206Z,11.60
2023-03-15T19:02:24.889Z,11.60
2023-03-15T19:04:51.753Z,11.50
2023-03-15T19:07:18.652Z,11.50
2023-03-15T19:09:45.281Z,11.50
2023-03-15T19:12:11.901Z,11.50
2023-03-15T19:14:38.527Z,11.50
2023-03-15T19:17:05.205Z,11.50
2023-03-15T19:19:31.861Z,11.50
2023-03-15T19:21:58.482Z,11.50
2023-03-15T19:24:25.099Z,11.50
2023-03-15T19:26:51.715Z,11.50
2023-03-15T19:29:18.337Z,11.50
2023-03-15T19:31:44.970Z,11.50
2023-03-15T19:34:11.821Z,11.50
2023-03-15T19:36:38.441Z,11.50
2023-03-15T19:39:05.074Z,11.50
2023-03-15T19:41:31.696Z,11.50
2023-03-15T19:43:58.319Z,11.50
2023-03-15T19:46:24.958Z,11.40
2023-03-15T19:48:51.613Z,11.50
2023-03-15T19:51:18.484Z,11.50
2023-03-15T19:53:45.101Z,11.50
2023-03-15T19:56:11.713Z,11.40
2023-03-15T19:58:38.333Z,11.50
2023-03-15T20:01:04.951Z,11.40
2023-03-15T20:03:31.833Z,11.50
2023-03-15T20:05:58.469Z,11.40
2023-03-15T20:08:26.353Z,11.40
2023-03-15T20:10:53.115Z,11.40
2023-03-15T20:13:19.741Z,11.40
2023-03-15T20:15:46.384Z,11.40
2023-03-15T20:18:13.071Z,11.40
2023-03-15T20:20:39.929Z,11.40
2023-03-15T20:23:06.551Z,11.40
2023-03-15T20:25:33.301Z,11.40
2023-03-15T20:27:59.927Z,11.40
2023-03-15T20:30:26.566Z,11.40
2023-03-15T20:32:53.249Z,11.40
2023-03-15T20:35:19.918Z,11.30
2023-03-15T20:37:46.793Z,11.40
2023-03-15T20:40:13.515Z,11.40
2023-03-15T20:42:40.162Z,11.40
2023-03-15T20:45:06.817Z,11.40
2023-03-15T20:47:33.446Z,11.30
2023-03-15T20:50:00.074Z,11.30
2023-03-15T20:52:26.689Z,11.40
2023-03-15T20:54:53.538Z,11.30
2023-03-15T20:57:20.169Z,11.30
2023-03-15T20:59:46.802Z,11.30
2023-03-15T21:02:13.442Z,11.30
2023-03-15T21:04:40.074Z,11.30
2023-03-15T21:07:06.708Z,11.30
2023-03-15T21:09:33.321Z,11.30
2023-03-15T21:12:00.190Z,11.30
2023-03-15T21:14:26.806Z,11.30
2023-03-15T21:16:53.479Z,11.30
2023-03-15T21:19:20.139Z,11.30
2023-03-15T21:21:46.761Z,11.30
2023-03-15T21:24:13.398Z,11.30
2023-03-15T21:26:40.020Z,11.30
2023-03-15T21:29:06.857Z,11.30
2023-03-15T21:31:33.507Z,11.30
2023-03-15T21:34:00.157Z,11.30
2023-03-15T21:36:26.782Z,11.30
2023-03-15T21:38:53.416Z,11.30
2023-03-15T21:41:20.038Z,11.30
2023-03-15T21:43:46.646Z,11.30
2023-03-15T21:46:13.614Z,11.30
2023-03-15T21:48:40.492Z,11.30
2023-03-15T21:51:07.111Z,11.30
2023-03-15T21:53:33.736Z,11.30
2023-03-15T21:56:00.368Z,11.20
2023-03-15T21:58:26.996Z,11.20
2023-03-15T22:00:53.703Z,11.20
2023-03-15T22:03:20.338Z,11.20
2023-03-15T22:05:46.962Z,11.20
2023-03-15T22:08:13.943Z,11.20
2023-03-15T22:10:40.579Z,11.20
2023-03-15T22:13:07.178Z,11.20
2023-03-15T22:15:33.800Z,11.20
2023-03-15T22:18:00.434Z,11.20
2023-03-15T22:20:27.280Z,11.20
2023-03-15T22:22:53.995Z,11.20
2023-03-15T22:25:21.032Z,11.20
2023-03-15T22:27:47.709Z,11.20
2023-03-15T22:30:14.344Z,11.20
2023-03-15T22:32:41.001Z,11.20
2023-03-15T22:35:07.664Z,11.20
2023-03-15T22:37:34.510Z,11.20
2023-03-15T22:40:01.128Z,11.20
2023-03-15T22:42:27.789Z,11.10
2023-03-15T22:44:54.416Z,11.20
2023-03-15T22:47:21.053Z,11.10
2023-03-15T22:49:47.690Z,11.10
2023-03-15T22:52:14.315Z,11.20
2023-03-15T22:54:40.934Z,11.10
2023-03-15T22:57:07.558Z,11.10
2023-03-15T22:59:34.419Z,11.10
2023-03-15T23:02:01.033Z,11.10
2023-03-15T23:04:27.683Z,11.10
2023-03-15T23:06:54.318Z,11.10
2023-03-15T23:09:20.945Z,11.10
2023-03-15T23:11:47.579Z,11.10
2023-03-15T23:14:14.215Z,11.10
2023-03-15T23:16:41.048Z,11.10
2023-03-15T23:19:07.672Z,11.10
2023-03-15T23:21:34.286Z,11.10
2023-03-15T23:24:00.917Z,11.10
2023-03-15T23:26:27.529Z,11.10
2023-03-15T23:28:54.152Z,11.10
2023-03-15T23:31:20.814Z,11.10
2023-03-15T23:33:47.448Z,11.10
2023-03-15T23:36:14.067Z,11.10
2023-03-15T23:38:40.690Z,11.00
2023-03-15T23:41:07.323Z,11.10
2023-03-15T23:43:34.167Z,11.00
2023-03-15T23:46:00.798Z,11.10
2023-03-15T23:48:27.433Z,11.00
2023-03-15T23:50:54.059Z,11.10
2023-03-15T23:53:20.680Z,11.10
2023-03-15T23:55:47.292Z,11.00
2023-03-15T23:58:13.907Z,11.10
